createdAt,value
2023-02-04T00:00:37.254Z,8.93
2023-02-04T00:03:07.122Z,9.13
2023-02-04T00:05:35.200Z,8.50
2023-02-04T00:08:03.974Z,8.37
2023-02-04T00:10:32.502Z,8.83
2023-02-04T00:13:00.586Z,8.03
2023-02-04T00:15:28.692Z,7.90
2023-02-04T00:17:56.774Z,8.53
2023-02-04T00:20:26.072Z,9.73
2023-02-04T00:22:54.033Z,9.53
2023-02-04T00:25:22.015Z,9.10
2023-02-04T00:27:49.982Z,8.07
2023-02-04T00:30:18.480Z,8.40
2023-02-04T00:32:46.450Z,9.63
2023-02-04T00:35:14.687Z,7.83
2023-02-04T00:37:43.975Z,7.80
2023-02-04T00:40:13.073Z,6.77
2023-02-04T00:42:41.047Z,7.10
2023-02-04T00:45:09.939Z,6.83
2023-02-04T00:47:37.984Z,7.37
2023-02-04T00:50:06.527Z,6.93
2023-02-04T00:52:34.646Z,6.73
2023-02-04T00:55:07.206Z,6.67
2023-02-04T00:57:35.505Z,6.00
2023-02-04T01:00:10.534Z,6.20
2023-02-04T01:02:46.157Z,6.63
2023-02-04T01:05:14.152Z,6.57
2023-02-04T01:07:42.801Z,6.40
2023-02-04T01:10:13.294Z,7.10
2023-02-04T01:12:43.564Z,6.47
2023-02-04T01:15:12.642Z,6.67
2023-02-04T01:17:41.795Z,6.20
2023-02-04T01:20:11.582Z,6.67
2023-02-04T01:22:39.558Z,6.17
2023-02-04T01:25:08.728Z,6.47
2023-02-04T01:27:38.253Z,6.53
2023-02-04T01:30:07.466Z,7.17
2023-02-04T01:32:35.434Z,6.77
2023-02-04T01:35:03.389Z,6.37
2023-02-04T01:37:31.414Z,7.17
2023-02-04T01:39:59.436Z,7.10
2023-02-04T01:42:27.653Z,6.30
2023-02-04T01:44:57.019Z,6.83
2023-02-04T01:47:25.660Z,5.63
2023-02-04T01:49:55.625Z,5.70
2023-02-04T01:52:24.480Z,5.53
2023-02-04T01:54:53.848Z,5.77
2023-02-04T01:57:21.850Z,5.43
2023-02-04T01:59:53.484Z,6.07
2023-02-04T02:02:43.896Z,6.57
2023-02-04T02:05:16.225Z,6.87
2023-02-04T02:07:44.383Z,7.00
2023-02-04T02:10:13.518Z,6.00
2023-02-04T02:12:42.141Z,6.23
2023-02-04T02:15:11.921Z,6.10
2023-02-04T02:17:41.659Z,6.17
2023-02-04T02:20:13.680Z,6.47
2023-02-04T02:22:50.559Z,6.37
2023-02-04T02:25:19.875Z,6.07
2023-02-04T02:27:48.229Z,6.23
2023-02-04T02:30:17.890Z,6.30
2023-02-04T02:32:46.541Z,7.73
2023-02-04T02:35:15.612Z,8.10
2023-02-04T02:37:43.761Z,8.80
2023-02-04T02:40:13.474Z,8.00
2023-02-04T02:42:44.956Z,8.27
2023-02-04T02:45:19.350Z,7.60
2023-02-04T02:47:47.304Z,8.50
2023-02-04T02:50:18.508Z,7.97
2023-02-04T02:52:46.541Z,8.30
2023-02-04T02:55:17.256Z,7.43
2023-02-04T02:57:48.386Z,7.90
2023-02-04T03:00:18.441Z,7.60
2023-02-04T03:02:51.047Z,6.90
2023-02-04T03:05:19.152Z,6.53
2023-02-04T03:07:47.242Z,6.50
2023-02-04T03:10:15.705Z,6.80
2023-02-04T03:12:43.687Z,7.13
2023-02-04T03:15:13.403Z,6.80
2023-02-04T03:17:41.968Z,7.80
2023-02-04T03:20:11.145Z,8.20
2023-02-04T03:22:39.404Z,7.40
2023-02-04T03:25:08.390Z,7.17
2023-02-04T03:27:36.395Z,6.43
2023-02-04T03:30:04.632Z,6.00
2023-02-04T03:32:33.978Z,5.70
2023-02-04T03:35:02.026Z,5.33
2023-02-04T03:37:29.941Z,5.67
2023-02-04T03:39:57.898Z,5.70
2023-02-04T03:42:25.848Z,6.40
2023-02-04T03:44:53.812Z,6.27
2023-02-04T03:47:21.759Z,5.90
2023-02-04T03:49:51.153Z,5.77
2023-02-04T03:52:20.338Z,6.50
2023-02-04T03:54:48.587Z,7.07
2023-02-04T03:57:16.901Z,7.77
2023-02-04T03:59:44.909Z,7.77
2023-02-04T04:02:12.882Z,5.33
2023-02-04T04:04:40.924Z,5.40
2023-02-04T04:07:10.258Z,5.80
2023-02-04T04:09:38.226Z,6.10
2023-02-04T04:12:06.480Z,6.80
2023-02-04T04:14:34.411Z,6.87
2023-02-04T04:17:02.385Z,7.70
2023-02-04T04:19:31.834Z,8.03
2023-02-04T04:21:59.892Z,7.63
2023-02-04T04:24:29.267Z,8.33
2023-02-04T04:26:57.229Z,8.47
2023-02-04T04:29:25.218Z,8.63
2023-02-04T04:31:53.266Z,8.73
2023-02-04T04:34:21.254Z,9.03
2023-02-04T04:36:49.231Z,9.23
2023-02-04T04:39:17.201Z,9.10
2023-02-04T04:41:46.484Z,9.03
2023-02-04T04:44:14.453Z,9.37
2023-02-04T04:46:42.532Z,9.07
2023-02-04T04:49:10.498Z,9.13
2023-02-04T04:51:38.545Z,9.13
2023-02-04T04:54:06.561Z,9.87
2023-02-04T04:56:34.541Z,9.73
2023-02-04T04:59:03.865Z,8.27
2023-02-04T05:01:31.795Z,8.43
2023-02-04T05:03:59.819Z,7.73
2023-02-04T05:06:27.889Z,8.03
2023-02-04T05:08:55.885Z,8.50
2023-02-04T05:11:23.798Z,8.30
2023-02-04T05:13:51.753Z,8.93
2023-02-04T05:16:21.067Z,8.07
2023-02-04T05:18:49.195Z,7.90
2023-02-04T05:21:17.157Z,7.23
2023-02-04T05:23:45.084Z,7.67
2023-02-04T05:26:17.235Z,7.07
2023-02-04T05:28:53.165Z,7.23
2023-02-04T05:31:22.532Z,7.17
2023-02-04T05:33:50.574Z,6.87
2023-02-04T05:36:18.837Z,7.43
2023-02-04T05:38:46.812Z,6.93
2023-02-04T05:41:14.918Z,8.03
2023-02-04T05:43:43.106Z,7.00
2023-02-04T05:46:11.158Z,7.60
2023-02-04T05:48:41.124Z,7.47
2023-02-04T05:51:09.046Z,7.37
2023-02-04T05:53:37.007Z,7.20
2023-02-04T05:56:05.155Z,8.17
2023-02-04T05:58:34.217Z,8.13
2023-02-04T06:01:02.482Z,7.77
2023-02-04T06:03:32.676Z,7.70
2023-02-04T06:06:02.009Z,7.87
2023-02-04T06:08:29.935Z,9.00
2023-02-04T06:10:57.891Z,8.40
2023-02-04T06:13:25.900Z,8.37
2023-02-04T06:15:53.979Z,7.90
2023-02-04T06:18:21.943Z,8.87
2023-02-04T06:20:49.900Z,8.93
2023-02-04T06:23:19.207Z,9.77
2023-02-04T06:25:48.836Z,9.77
2023-02-04T06:28:16.981Z,10.17
2023-02-04T06:30:45.240Z,9.83
2023-02-04T06:33:13.203Z,10.07
2023-02-04T06:35:41.178Z,10.73
2023-02-04T06:38:09.112Z,11.10
2023-02-04T06:40:38.488Z,11.67
2023-02-04T06:43:06.420Z,11.70
2023-02-04T06:45:34.400Z,10.53
2023-02-04T06:48:02.308Z,11.37
2023-02-04T06:50:30.552Z,11.40
2023-02-04T06:52:58.699Z,12.13
2023-02-04T06:55:26.694Z,11.13
2023-02-04T06:57:55.992Z,12.50
2023-02-04T07:00:24.295Z,13.33
2023-02-04T07:02:52.932Z,13.27
2023-02-04T07:05:20.960Z,11.83
2023-02-04T07:07:48.886Z,12.13
2023-02-04T07:10:17.840Z,12.03
2023-02-04T07:12:45.760Z,12.60
2023-02-04T07:15:15.377Z,12.80
2023-02-04T07:17:43.346Z,13.20
2023-02-04T07:20:12.335Z,12.73
2023-02-04T07:22:40.314Z,13.87
2023-02-04T07:25:09.005Z,12.57
2023-02-04T07:27:37.027Z,13.53
2023-02-04T07:30:05.277Z,12.57
2023-02-04T07:32:34.713Z,12.77
2023-02-04T07:35:02.666Z,12.90
2023-02-04T07:37:30.716Z,13.30
2023-02-04T07:39:58.671Z,13.63
2023-02-04T07:42:26.629Z,13.67
2023-02-04T07:44:54.572Z,13.43
2023-02-04T07:47:22.604Z,12.97
2023-02-04T07:49:52.011Z,13.77
2023-02-04T07:52:19.978Z,13.37
2023-02-04T07:54:47.905Z,14.97
2023-02-04T07:57:15.908Z,12.97
2023-02-04T07:59:43.812Z,13.80
2023-02-04T08:02:12.083Z,14.47
2023-02-04T08:04:40.414Z,14.60
2023-02-04T08:07:09.742Z,14.27
2023-02-04T08:09:37.739Z,14.60
2023-02-04T08:12:06.256Z,14.73
2023-02-04T08:14:34.199Z,13.87
2023-02-04T08:17:02.166Z,13.60
2023-02-04T08:19:30.071Z,14.60
2023-02-04T08:21:58.039Z,15.73
2023-02-04T08:24:27.313Z,15.80
2023-02-04T08:26:55.277Z,16.27
2023-02-04T08:29:23.235Z,15.03
2023-02-04T08:31:51.212Z,15.90
2023-02-04T08:34:19.333Z,16.60
2023-02-04T08:36:47.313Z,15.27
2023-02-04T08:39:15.315Z,16.33
2023-02-04T08:41:44.624Z,16.27
2023-02-04T08:44:12.588Z,16.87
2023-02-04T08:46:40.583Z,16.20
2023-02-04T08:49:08.587Z,15.87
2023-02-04T08:51:36.610Z,14.87
2023-02-04T08:54:04.940Z,15.27
2023-02-04T08:56:32.869Z,16.47
2023-02-04T08:59:02.487Z,14.20
2023-02-04T09:01:30.466Z,15.23
2023-02-04T09:03:58.478Z,15.40
2023-02-04T09:06:26.504Z,15.40
2023-02-04T09:08:54.473Z,17.27
2023-02-04T09:11:22.516Z,16.90
2023-02-04T09:13:50.506Z,16.50
2023-02-04T09:16:20.048Z,17.07
2023-02-04T09:18:48.027Z,18.10
2023-02-04T09:21:16.065Z,16.87
2023-02-04T09:23:44.729Z,17.03
2023-02-04T09:26:12.671Z,16.93
2023-02-04T09:28:40.588Z,17.23
2023-02-04T09:31:08.604Z,16.37
2023-02-04T09:33:38.407Z,18.10
2023-02-04T09:36:09.145Z,20.00
2023-02-04T09:38:37.794Z,18.77
2023-02-04T09:41:09.135Z,15.73
2023-02-04T09:43:40.223Z,15.57
2023-02-04T09:46:10.465Z,15.63
2023-02-04T09:48:39.909Z,16.40
2023-02-04T09:51:09.443Z,15.50
2023-02-04T09:53:39.477Z,17.67
2023-02-04T09:56:10.584Z,18.13
2023-02-04T09:58:38.561Z,16.17
2023-02-04T10:01:13.591Z,17.90
2023-02-04T10:03:46.709Z,16.37
2023-02-04T10:06:16.239Z,15.33
2023-02-04T10:08:45.907Z,14.70
2023-02-04T10:11:16.040Z,15.90
2023-02-04T10:13:46.255Z,14.10
2023-02-04T10:16:17.207Z,15.00
2023-02-04T10:18:46.793Z,15.53
2023-02-04T10:21:17.993Z,17.57
2023-02-04T10:23:49.428Z,14.80
2023-02-04T10:26:18.401Z,15.17
2023-02-04T10:28:47.083Z,13.63
2023-02-04T10:31:30.545Z,14.83
2023-02-04T10:34:21.789Z,12.63
2023-02-04T10:36:51.384Z,14.13
2023-02-04T10:39:21.961Z,13.60
2023-02-04T10:41:51.632Z,13.53
2023-02-04T10:44:21.255Z,13.80
2023-02-04T10:46:49.425Z,13.40
2023-02-04T10:49:22.527Z,15.93
2023-02-04T10:51:52.870Z,12.43
2023-02-04T10:54:30.127Z,11.90
2023-02-04T10:56:59.083Z,13.67
2023-02-04T10:59:28.036Z,12.13
2023-02-04T11:01:57.986Z,11.33
2023-02-04T11:04:28.792Z,11.00
2023-02-04T11:06:56.791Z,11.40
2023-02-04T11:09:24.838Z,11.67
2023-02-04T11:11:53.055Z,12.27
2023-02-04T11:14:28.219Z,11.67
2023-02-04T11:17:00.523Z,12.00
2023-02-04T11:19:36.250Z,11.60
2023-02-04T11:22:21.633Z,10.80
2023-02-04T11:24:50.182Z,12.87
2023-02-04T11:27:24.618Z,13.73
2023-02-04T11:29:52.829Z,11.90
2023-02-04T11:32:33.444Z,10.63
2023-02-04T11:35:24.376Z,10.30
2023-02-04T11:37:53.047Z,10.73
2023-02-04T11:40:25.416Z,10.43
2023-02-04T11:43:02.275Z,10.10
2023-02-04T11:45:34.184Z,10.67
2023-02-04T11:48:05.237Z,10.67
2023-02-04T11:50:38.448Z,10.83
2023-02-04T11:53:06.833Z,10.83
2023-02-04T11:55:38.290Z,9.77
2023-02-04T11:58:08.724Z,9.80
2023-02-04T12:00:38.339Z,9.70
2023-02-04T12:03:20.557Z,10.23
2023-02-04T12:05:49.984Z,9.93
2023-02-04T12:08:30.914Z,9.43
2023-02-04T12:11:05.662Z,10.73
2023-02-04T12:13:34.712Z,9.67
2023-02-04T12:16:05.784Z,13.83
2023-02-04T12:18:35.502Z,11.40
2023-02-04T12:21:05.381Z,10.93
2023-02-04T12:23:33.712Z,9.83
2023-02-04T12:26:01.679Z,10.20
2023-02-04T12:28:30.007Z,8.67
2023-02-04T12:30:58.240Z,8.97
2023-02-04T12:33:26.359Z,8.70
2023-02-04T12:35:54.360Z,10.30
2023-02-04T12:38:23.818Z,8.87
2023-02-04T12:40:51.775Z,10.83
2023-02-04T12:43:19.725Z,10.07
2023-02-04T12:45:49.840Z,11.43
2023-02-04T12:48:18.381Z,10.37
2023-02-04T12:50:46.386Z,9.30
2023-02-04T12:53:14.392Z,8.93
2023-02-04T12:55:43.669Z,9.03
2023-02-04T12:58:11.661Z,11.60
2023-02-04T13:00:39.767Z,10.73
2023-02-04T13:03:07.775Z,11.00
2023-02-04T13:05:36.060Z,11.30
2023-02-04T13:08:04.276Z,11.67
2023-02-04T13:10:32.218Z,10.53
2023-02-04T13:13:03.386Z,8.50
2023-02-04T13:15:32.673Z,8.83
2023-02-04T13:18:00.807Z,9.37
2023-02-04T13:20:28.745Z,9.30
2023-02-04T13:22:56.695Z,9.53
2023-02-04T13:25:25.068Z,10.23
2023-02-04T13:27:53.080Z,9.90
2023-02-04T13:30:22.672Z,13.47
2023-02-04T13:32:50.604Z,11.03
2023-02-04T13:35:19.484Z,9.67
2023-02-04T13:37:47.522Z,11.57
2023-02-04T13:40:15.504Z,12.97
2023-02-04T13:42:43.470Z,10.80
2023-02-04T13:45:13.164Z,14.67
2023-02-04T13:47:42.459Z,10.40
2023-02-04T13:50:11.132Z,10.83
2023-02-04T13:52:39.093Z,12.13
2023-02-04T13:55:07.575Z,8.90
2023-02-04T13:57:37.352Z,9.60
2023-02-04T14:00:06.865Z,10.17
2023-02-04T14:02:35.071Z,10.50
2023-02-04T14:05:04.441Z,9.57
2023-02-04T14:07:33.555Z,9.03
2023-02-04T14:10:01.481Z,9.00
2023-02-04T14:12:29.507Z,8.37
2023-02-04T14:14:57.452Z,8.80
2023-02-04T14:17:25.481Z,7.37
2023-02-04T14:19:53.408Z,9.97
2023-02-04T14:22:22.721Z,9.77
2023-02-04T14:24:50.733Z,8.30
2023-02-04T14:27:18.732Z,7.97
2023-02-04T14:29:46.714Z,9.37
2023-02-04T14:32:14.698Z,10.20
2023-02-04T14:34:42.625Z,10.43
2023-02-04T14:37:10.581Z,10.60
2023-02-04T14:39:39.922Z,9.63
2023-02-04T14:42:07.874Z,10.33
2023-02-04T14:44:35.816Z,11.67
2023-02-04T14:47:03.765Z,11.87
2023-02-04T14:49:33.080Z,12.40
2023-02-04T14:52:01.050Z,11.90
2023-02-04T14:54:28.986Z,10.87
2023-02-04T14:56:58.312Z,10.43
2023-02-04T14:59:26.247Z,10.60
2023-02-04T15:01:54.205Z,13.40
2023-02-04T15:04:22.166Z,13.80
2023-02-04T15:06:51.028Z,21.60
2023-02-04T15:09:19.411Z,15.57
2023-02-04T15:11:47.347Z,15.57
2023-02-04T15:14:16.643Z,15.27
2023-02-04T15:16:47.998Z,15.53
2023-02-04T15:19:16.306Z,15.97
2023-02-04T15:21:44.740Z,15.33
2023-02-04T15:24:13.264Z,19.17
2023-02-04T15:26:41.221Z,18.47
2023-02-04T15:29:09.217Z,17.10
2023-02-04T15:31:38.721Z,17.00
2023-02-04T15:34:06.806Z,17.50
2023-02-04T15:36:34.739Z,14.50
2023-02-04T15:39:02.757Z,15.30
2023-02-04T15:41:30.807Z,16.37
2023-02-04T15:43:58.761Z,15.63
2023-02-04T15:46:27.587Z,14.43
2023-02-04T15:48:56.915Z,13.63
2023-02-04T15:51:24.892Z,14.73
2023-02-04T15:53:52.844Z,14.10
2023-02-04T15:56:20.862Z,14.70
2023-02-04T15:58:49.106Z,16.47
2023-02-04T16:01:17.069Z,18.27
2023-02-04T16:03:46.839Z,20.90
2023-02-04T16:06:16.301Z,20.20
2023-02-04T16:08:44.214Z,21.60
2023-02-04T16:11:12.164Z,19.70
2023-02-04T16:13:40.175Z,20.13
2023-02-04T16:16:08.858Z,18.07
2023-02-04T16:18:36.828Z,17.10
2023-02-04T16:21:05.082Z,16.97
2023-02-04T16:23:34.406Z,16.53
2023-02-04T16:26:02.472Z,14.43
2023-02-04T16:28:30.491Z,14.93
2023-02-04T16:30:58.523Z,15.63
2023-02-04T16:33:27.949Z,14.37
2023-02-04T16:36:00.980Z,13.40
2023-02-04T16:38:29.875Z,11.60
2023-02-04T16:40:59.516Z,13.00
2023-02-04T16:43:27.552Z,14.10
2023-02-04T16:45:55.897Z,13.03
2023-02-04T16:48:24.408Z,13.90
2023-02-04T16:50:52.663Z,16.73
2023-02-04T16:53:20.640Z,18.37
2023-02-04T16:55:49.182Z,14.70
2023-02-04T16:58:19.471Z,12.83
2023-02-04T17:00:48.602Z,15.90
2023-02-04T17:03:16.806Z,14.83
2023-02-04T17:05:44.798Z,14.53
2023-02-04T17:08:15.060Z,14.63
2023-02-04T17:11:00.275Z,16.90
2023-02-04T17:13:29.787Z,18.00
2023-02-04T17:16:01.085Z,15.97
2023-02-04T17:18:29.997Z,14.13
2023-02-04T17:20:59.209Z,14.50
2023-02-04T17:23:28.368Z,14.87
2023-02-04T17:25:56.444Z,15.77
2023-02-04T17:28:24.637Z,16.20
2023-02-04T17:30:54.043Z,14.33
2023-02-04T17:33:22.132Z,14.60
2023-02-04T17:35:50.437Z,15.43
2023-02-04T17:38:18.404Z,17.07
2023-02-04T17:40:46.609Z,14.47
2023-02-04T17:43:14.629Z,13.97
2023-02-04T17:45:42.580Z,17.60
2023-02-04T17:48:11.911Z,15.53
2023-02-04T17:50:40.389Z,16.40
2023-02-04T17:53:09.234Z,15.03
2023-02-04T17:55:39.437Z,16.37
2023-02-04T17:58:14.901Z,15.00
2023-02-04T18:00:44.690Z,13.60
2023-02-04T18:03:15.819Z,15.40
2023-02-04T18:05:47.087Z,17.20
2023-02-04T18:08:18.169Z,16.80
2023-02-04T18:10:48.185Z,17.23
2023-02-04T18:13:18.218Z,16.07
2023-02-04T18:15:50.243Z,16.37
2023-02-04T18:18:25.013Z,16.57
2023-02-04T18:20:59.588Z,17.80
2023-02-04T18:23:29.763Z,17.83
2023-02-04T18:26:08.552Z,16.67
2023-02-04T18:28:36.840Z,16.40
2023-02-04T18:31:20.081Z,15.27
2023-02-04T18:33:50.406Z,16.00
2023-02-04T18:36:23.110Z,17.27
2023-02-04T18:38:51.737Z,17.37
2023-02-04T18:41:34.462Z,17.20
2023-02-04T18:44:26.601Z,17.60
2023-02-04T18:46:55.501Z,15.63
2023-02-04T18:49:29.301Z,12.93
2023-02-04T18:51:59.626Z,11.10
2023-02-04T18:54:38.040Z,13.97
2023-02-04T18:57:29.121Z,13.53
2023-02-04T19:00:23.947Z,12.90
2023-02-04T19:02:56.169Z,13.00
2023-02-04T19:05:33.122Z,11.53
2023-02-04T19:08:22.370Z,15.87
2023-02-04T19:10:51.196Z,14.50
2023-02-04T19:13:22.206Z,13.70
2023-02-04T19:16:02.044Z,16.50
2023-02-04T19:18:34.608Z,19.53
2023-02-04T19:21:20.368Z,12.17
2023-02-04T19:23:48.474Z,12.13
2023-02-04T19:26:29.790Z,11.47
2023-02-04T19:28:58.523Z,11.93
2023-02-04T19:31:33.630Z,11.63
2023-02-04T19:34:03.124Z,11.17
2023-02-04T19:36:35.245Z,11.27
2023-02-04T19:39:07.974Z,11.23
2023-02-04T19:41:46.723Z,11.50
2023-02-04T19:44:39.044Z,12.03
2023-02-04T19:47:25.192Z,10.77
2023-02-04T19:49:58.484Z,10.90
2023-02-04T19:52:35.120Z,9.87
2023-02-04T19:55:28.386Z,9.33
2023-02-04T19:57:59.795Z,11.07
2023-02-04T20:00:44.784Z,11.70
2023-02-04T20:03:25.638Z,9.93
2023-02-04T20:05:53.736Z,9.13
2023-02-04T20:08:44.778Z,8.83
2023-02-04T20:11:46.701Z,8.90
2023-02-04T20:14:41.799Z,10.13
2023-02-04T20:17:20.400Z,9.60
2023-02-04T20:19:48.909Z,10.23
2023-02-04T20:22:50.541Z,10.03
2023-02-04T20:25:40.526Z,12.10
2023-02-04T20:28:19.830Z,9.90
2023-02-04T20:30:50.149Z,8.83
2023-02-04T20:33:26.887Z,8.30
2023-02-04T20:36:24.070Z,9.47
2023-02-04T20:38:54.013Z,11.00
2023-02-04T20:41:23.797Z,8.67
2023-02-04T20:43:52.652Z,9.87
2023-02-04T20:46:22.981Z,10.10
2023-02-04T20:48:51.386Z,9.53
2023-02-04T20:51:23.551Z,11.43
2023-02-04T20:53:52.640Z,10.20
2023-02-04T20:56:26.204Z,9.60
2023-02-04T20:58:56.967Z,10.33
2023-02-04T21:01:30.893Z,10.57
2023-02-04T21:03:59.366Z,10.13
2023-02-04T21:06:29.829Z,11.63
2023-02-04T21:08:59.316Z,12.53
2023-02-04T21:11:28.860Z,12.73
2023-02-04T21:13:56.872Z,13.17
2023-02-04T21:16:24.850Z,11.53
2023-02-04T21:18:54.210Z,13.97
2023-02-04T21:21:24.519Z,11.90
2023-02-04T21:23:52.502Z,10.33
2023-02-04T21:26:20.476Z,11.03
2023-02-04T21:28:50.266Z,11.40
2023-02-04T21:31:18.324Z,11.60
2023-02-04T21:33:46.512Z,12.13
2023-02-04T21:36:14.632Z,12.80
2023-02-04T21:38:42.609Z,11.60
2023-02-04T21:41:10.544Z,11.67
2023-02-04T21:43:38.507Z,12.23
2023-02-04T21:46:07.925Z,11.53
2023-02-04T21:48:35.911Z,15.73
2023-02-04T21:51:03.902Z,15.13
2023-02-04T21:53:31.837Z,11.97
2023-02-04T21:55:59.824Z,11.10
2023-02-04T21:58:27.812Z,11.90
2023-02-04T22:00:55.781Z,10.57
2023-02-04T22:03:25.180Z,11.40
2023-02-04T22:05:53.168Z,10.23
2023-02-04T22:08:22.351Z,9.87
2023-02-04T22:10:50.310Z,10.17
2023-02-04T22:13:18.282Z,9.63
2023-02-04T22:15:47.898Z,10.43
2023-02-04T22:18:16.247Z,10.60
2023-02-04T22:20:45.538Z,10.23
2023-02-04T22:23:13.534Z,10.87
2023-02-04T22:25:41.470Z,10.40
2023-02-04T22:28:09.553Z,9.83
2023-02-04T22:30:37.873Z,10.47
2023-02-04T22:33:05.876Z,10.43
2023-02-04T22:35:36.711Z,10.10
2023-02-04T22:38:06.235Z,11.30
2023-02-04T22:40:34.211Z,13.03
2023-02-04T22:43:02.545Z,10.97
2023-02-04T22:45:30.543Z,10.20
2023-02-04T22:47:58.494Z,11.57
2023-02-04T22:50:26.445Z,10.50
2023-02-04T22:52:54.401Z,10.07
2023-02-04T22:55:24.043Z,10.20
2023-02-04T22:57:51.979Z,10.90
2023-02-04T23:00:19.966Z,10.57
2023-02-04T23:02:47.905Z,10.37
2023-02-04T23:05:16.033Z,10.47
2023-02-04T23:07:43.993Z,11.40
2023-02-04T23:10:12.142Z,10.73
2023-02-04T23:12:41.404Z,11.47
2023-02-04T23:15:11.628Z,11.80
2023-02-04T23:17:39.569Z,10.83
2023-02-04T23:20:08.331Z,11.57
2023-02-04T23:22:36.519Z,12.37
2023-02-04T23:25:06.411Z,12.13
2023-02-04T23:27:34.736Z,11.70
2023-02-04T23:30:05.868Z,11.97
2023-02-04T23:32:33.872Z,12.30
2023-02-04T23:35:01.889Z,11.53
2023-02-04T23:37:29.863Z,12.63
2023-02-04T23:39:57.802Z,11.53
2023-02-04T23:42:26.192Z,11.30
2023-02-04T23:44:54.130Z,11.87
2023-02-04T23:47:23.513Z,12.50
2023-02-04T23:49:51.483Z,11.27
2023-02-04T23:52:19.558Z,12.60
2023-02-04T23:54:47.505Z,10.50
2023-02-04T23:57:15.491Z,12.63
2023-02-04T23:59:43.433Z,12.80
